Time;durP1;ratioP1;P1;durP2;ratioP2;P2;SDS_P1;SDS_P2;PMS_P1;PMS_P2;Temp;Humidity;BMP_temperature;BMP_pressure;BME280_temperature;BME280_humidity;BME280_pressure;Samples;Min_cycle;Max_cycle;Signal;HPM_P1;HPM_P2
2023/03/20 00:01:30;;;;;;;;;7.40;7.40;;;;;;;;5050857;29;8934;-73
2023/03/20 00:04:01;;;;;;;;;10.80;10.00;;;;;;;;5037835;29;8981;-75
2023/03/20 00:06:32;;;;;;;;;7.60;7.60;;;;;;;;5054567;29;8810;-75
2023/03/20 00:09:03;;;;;;;;;11.20;11.00;;;;;;;;5069582;29;8929;-75
2023/03/20 00:11:40;;;;;;;;;12.00;10.80;;;;;;;;5038921;29;8802;-75
2023/03/20 00:14:12;;;;;;;;;13.60;12.20;;;;;;;;5069849;29;8846;-75
2023/03/20 00:16:45;;;;;;;;;13.60;13.60;;;;;;;;5069565;29;8901;-75
2023/03/20 00:19:34;;;;;;;;;12.40;12.40;;;;;;;;5070045;29;8802;-75
2023/03/20 00:22:05;;;;;;;;;13.50;13.50;;;;;;;;5054255;29;8806;-76
2023/03/20 00:24:36;;;;;;;;;12.40;12.00;;;;;;;;5053941;29;12383;-74
2023/03/20 00:27:12;;;;;;;;;10.20;10.20;;;;;;;;5038710;29;8802;-75
2023/03/20 00:29:44;;;;;;;;;15.00;13.60;;;;;;;;5038683;29;9580;-75
2023/03/20 00:32:16;;;;;;;;;5.20;4.00;;;;;;;;5086028;29;9581;-74
2023/03/20 00:34:47;;;;;;;;;8.40;7.40;;;;;;;;5069513;29;8813;-74
2023/03/20 00:37:18;;;;;;;;;17.20;16.20;;;;;;;;5067275;29;8840;-74
2023/03/20 00:39:50;;;;;;;;;16.20;16.00;;;;;;;;5053859;29;8952;-75
2023/03/20 00:42:21;;;;;;;;;13.40;13.40;;;;;;;;5054137;29;8798;-75
2023/03/20 00:44:54;;;;;;;;;13.80;13.80;;;;;;;;5069505;29;8790;-79
2023/03/20 00:47:29;;;;;;;;;18.40;14.00;;;;;;;;5053645;29;8810;-78
2023/03/20 00:50:00;;;;;;;;;16.00;16.00;;;;;;;;5069200;29;8865;-78
2023/03/20 00:52:31;;;;;;;;;14.60;14.40;;;;;;;;5069163;29;8826;-79
2023/03/20 00:55:03;;;;;;;;;11.60;10.60;;;;;;;;5049432;29;8860;-79
2023/03/20 00:57:47;;;;;;;;;11.80;11.80;;;;;;;;5050023;29;8852;-79
2023/03/20 01:00:20;;;;;;;;;13.60;13.40;;;;;;;;5049704;29;8842;-79
2023/03/20 01:02:53;;;;;;;;;14.20;14.00;;;;;;;;5049310;29;8842;-79
2023/03/20 01:05:28;;;;;;;;;9.00;9.00;;;;;;;;5038253;29;8882;-79
2023/03/20 01:08:00;;;;;;;;;14.00;14.00;;;;;;;;5068579;29;9534;-79
2023/03/20 01:10:33;;;;;;;;;22.40;21.00;;;;;;;;5049031;29;8799;-78
2023/03/20 01:13:06;;;;;;;;;30.60;28.00;;;;;;;;5050788;29;8832;-79
2023/03/20 01:15:37;;;;;;;;;28.80;28.60;;;;;;;;5053192;29;8806;-78
2023/03/20 01:18:11;;;;;;;;;28.60;27.20;;;;;;;;5069176;29;8862;-76
2023/03/20 01:20:43;;;;;;;;;30.20;29.40;;;;;;;;5053265;29;8814;-81
2023/03/20 01:23:14;;;;;;;;;27.00;26.40;;;;;;;;5068899;29;8798;-80
2023/03/20 01:25:46;;;;;;;;;21.20;20.20;;;;;;;;5068732;29;8806;-80
2023/03/20 01:28:19;;;;;;;;;20.00;20.00;;;;;;;;5052394;29;8867;-79
2023/03/20 01:30:51;;;;;;;;;27.00;26.60;;;;;;;;5053143;29;8798;-77
2023/03/20 01:33:25;;;;;;;;;16.80;16.80;;;;;;;;5032989;29;8856;-77
2023/03/20 01:36:20;;;;;;;;;20.20;20.20;;;;;;;;5049239;29;8947;-77
2023/03/20 01:38:54;;;;;;;;;17.80;17.00;;;;;;;;5049329;29;8951;-77
2023/03/20 01:41:44;;;;;;;;;17.40;16.80;;;;;;;;5048895;29;9587;-77
2023/03/20 01:44:23;;;;;;;;;23.20;22.60;;;;;;;;5033584;29;9591;-77
2023/03/20 01:47:00;;;;;;;;;20.00;20.00;;;;;;;;5039717;29;8882;-75
2023/03/20 01:49:50;;;;;;;;;17.20;16.80;;;;;;;;5068579;29;8829;-75
2023/03/20 01:52:23;;;;;;;;;19.40;17.00;;;;;;;;5067793;29;8806;-75
2023/03/20 01:54:54;;;;;;;;;28.40;26.40;;;;;;;;5037021;29;9017;-75
2023/03/20 01:57:26;;;;;;;;;19.80;19.60;;;;;;;;5052550;29;8802;-75
2023/03/20 01:59:58;;;;;;;;;20.00;20.00;;;;;;;;5068430;29;8838;-76
2023/03/20 02:02:49;;;;;;;;;21.80;21.20;;;;;;;;5054532;29;8872;-76
2023/03/20 02:05:41;;;;;;;;;23.80;22.40;;;;;;;;5031738;29;8815;-76
2023/03/20 02:08:20;;;;;;;;;22.40;22.40;;;;;;;;5052694;29;8786;-76
2023/03/20 02:10:53;;;;;;;;;22.00;18.80;;;;;;;;5052395;29;8836;-76
2023/03/20 02:13:30;;;;;;;;;20.80;20.40;;;;;;;;5067944;29;9665;-76
2023/03/20 02:16:07;;;;;;;;;19.80;18.80;;;;;;;;5036947;29;8836;-76
2023/03/20 02:18:58;;;;;;;;;24.80;24.00;;;;;;;;5052197;29;8805;-73
2023/03/20 02:21:39;;;;;;;;;28.00;28.00;;;;;;;;5051858;29;8825;-73
2023/03/20 02:24:14;;;;;;;;;22.00;21.60;;;;;;;;5051815;29;8810;-74
2023/03/20 02:27:07;;;;;;;;;33.40;32.60;;;;;;;;5048394;29;8820;-74
2023/03/20 02:29:45;;;;;;;;;29.20;24.80;;;;;;;;5039215;29;8816;-75
2023/03/20 02:32:35;;;;;;;;;31.40;29.20;;;;;;;;5055839;29;8816;-79
2023/03/20 02:35:16;;;;;;;;;175.33;141.33;;;;;;;;5033155;29;8823;-75
2023/03/20 02:38:06;;;;;;;;;66.20;51.80;;;;;;;;5048434;29;9409;-79
2023/03/20 02:40:37;;;;;;;;;31.20;29.80;;;;;;;;5037349;29;8885;-77
2023/03/20 02:43:27;;;;;;;;;22.40;22.40;;;;;;;;5058953;29;10483;-75
2023/03/20 02:46:05;;;;;;;;;26.20;25.40;;;;;;;;5056122;29;8804;-75
2023/03/20 02:48:55;;;;;;;;;25.80;24.20;;;;;;;;5045260;29;9328;-77
2023/03/20 02:51:26;;;;;;;;;24.60;24.60;;;;;;;;5061280;29;8900;-77
2023/03/20 02:54:22;;;;;;;;;16.80;16.80;;;;;;;;5034984;29;8913;-79
2023/03/20 02:57:09;;;;;;;;;18.60;18.40;;;;;;;;5037350;29;8830;-80
2023/03/20 02:59:44;;;;;;;;;16.60;16.60;;;;;;;;5051754;29;8805;-80
2023/03/20 03:02:17;;;;;;;;;14.40;14.40;;;;;;;;5065878;29;8810;-77
2023/03/20 03:04:52;;;;;;;;;13.00;13.00;;;;;;;;5064361;29;9520;-78
2023/03/20 03:07:45;;;;;;;;;18.20;18.00;;;;;;;;5074036;29;9552;-75
2023/03/20 03:10:22;;;;;;;;;13.40;13.00;;;;;;;;5065130;29;8818;-76
2023/03/20 03:12:56;;;;;;;;;14.20;13.40;;;;;;;;5087657;29;8948;-79
2023/03/20 03:15:31;;;;;;;;;13.00;13.00;;;;;;;;5068802;29;8804;-79
2023/03/20 03:18:06;;;;;;;;;11.20;10.00;;;;;;;;5051692;29;9536;-77
2023/03/20 03:20:38;;;;;;;;;333.00;238.50;;;;;;;;5051222;29;8820;-74
2023/03/20 03:23:24;;;;;;;;;52.40;46.00;;;;;;;;5051441;29;12330;-79
2023/03/20 03:25:57;;;;;;;;;19.60;18.40;;;;;;;;5081979;29;8809;-77
2023/03/20 03:28:50;;;;;;;;;19.60;19.40;;;;;;;;5057599;29;8933;-78
2023/03/20 03:31:23;;;;;;;;;13.40;12.20;;;;;;;;5070834;29;8866;-78
2023/03/20 03:33:56;;;;;;;;;11.60;11.00;;;;;;;;5035588;29;8833;-79
2023/03/20 03:37:01;;;;;;;;;17.80;16.80;;;;;;;;5038188;29;8986;-79
2023/03/20 03:39:38;;;;;;;;;27.20;24.80;;;;;;;;5020475;29;8807;-81
2023/03/20 03:42:12;;;;;;;;;21.40;21.20;;;;;;;;5051335;29;8796;-81
2023/03/20 03:44:50;;;;;;;;;17.75;17.25;;;;;;;;5440342;23;8926;-84
2023/03/20 04:06:53;;;;;;;;;36.60;36.60;;;;;;;;6007446;23;8907;-82
2023/03/20 04:09:32;;;;;;;;;31.40;30.00;;;;;;;;5057447;29;8800;-82
2023/03/20 04:12:06;;;;;;;;;37.40;34.40;;;;;;;;5040186;29;8812;-82
2023/03/20 04:52:16;;;;;;;;;34.60;34.20;;;;;;;;5414458;23;8944;-84
2023/03/20 04:57:53;;;;;;;;;33.40;28.20;;;;;;;;5503846;23;8872;-83
2023/03/20 05:00:25;;;;;;;;;28.40;26.20;;;;;;;;5031896;29;8935;-77
2023/03/20 05:02:56;;;;;;;;;27.00;26.25;;;;;;;;5053365;29;8910;-77
2023/03/20 05:05:28;;;;;;;;;22.00;22.00;;;;;;;;5068992;29;9512;-76
2023/03/20 05:07:59;;;;;;;;;19.60;19.20;;;;;;;;5072348;29;8842;-76
2023/03/20 05:10:36;;;;;;;;;22.80;21.80;;;;;;;;5053663;29;9535;-78
2023/03/20 05:13:14;;;;;;;;;27.20;25.40;;;;;;;;5067172;29;8807;-77
2023/03/20 05:16:08;;;;;;;;;9.60;9.60;;;;;;;;5063538;29;8810;-78
2023/03/20 05:18:47;;;;;;;;;20.00;19.80;;;;;;;;5049333;29;8877;-80
2023/03/20 05:21:37;;;;;;;;;23.60;20.80;;;;;;;;5065056;29;8794;-77
2023/03/20 05:24:21;;;;;;;;;27.20;25.00;;;;;;;;5049140;29;8865;-77
2023/03/20 05:27:06;;;;;;;;;26.40;21.40;;;;;;;;5049370;29;8809;-77
2023/03/20 05:29:55;;;;;;;;;16.60;16.40;;;;;;;;5066158;29;8786;-78
2023/03/20 05:32:58;;;;;;;;;27.40;23.00;;;;;;;;5025403;29;8944;-77
2023/03/20 05:35:32;;;;;;;;;38.00;35.60;;;;;;;;5082447;29;8784;-78
2023/03/20 05:38:30;;;;;;;;;56.20;45.60;;;;;;;;5056626;29;9569;-79
2023/03/20 05:41:18;;;;;;;;;55.00;47.60;;;;;;;;5033842;29;9514;-78
2023/03/20 05:44:24;;;;;;;;;40.20;38.40;;;;;;;;5065711;29;8822;-78
2023/03/20 05:47:04;;;;;;;;;44.40;34.80;;;;;;;;5033662;29;8790;-77
2023/03/20 05:50:05;;;;;;;;;26.40;26.20;;;;;;;;5041089;29;8814;-78
2023/03/20 05:52:56;;;;;;;;;29.40;28.40;;;;;;;;5032494;29;8893;-77
2023/03/20 05:55:50;;;;;;;;;28.80;28.80;;;;;;;;5028618;29;8814;-77
2023/03/20 05:58:41;;;;;;;;;27.60;27.00;;;;;;;;5035372;29;8837;-77
2023/03/20 06:01:28;;;;;;;;;27.00;27.00;;;;;;;;5080113;29;8880;-77
2023/03/20 06:04:17;;;;;;;;;27.40;24.00;;;;;;;;5079962;29;8844;-77
2023/03/20 06:07:08;;;;;;;;;26.60;25.20;;;;;;;;5047592;29;8928;-78
2023/03/20 06:09:41;;;;;;;;;24.20;24.20;;;;;;;;5063741;29;8806;-78
2023/03/20 06:12:16;;;;;;;;;19.80;19.80;;;;;;;;5048345;29;8813;-77
2023/03/20 06:14:46;;;;;;;;;30.50;28.25;;;;;;;;5046194;29;8824;-77
2023/03/20 06:17:18;;;;;;;;;14.80;14.80;;;;;;;;5052352;29;9495;-77
2023/03/20 06:19:54;;;;;;;;;17.20;16.40;;;;;;;;5038275;29;8859;-76
2023/03/20 06:22:26;;;;;;;;;15.40;15.40;;;;;;;;5067481;29;8799;-76
2023/03/20 06:24:57;;;;;;;;;20.00;18.80;;;;;;;;5036859;29;9546;-76
2023/03/20 06:27:35;;;;;;;;;15.60;15.60;;;;;;;;5037994;29;8784;-76
2023/03/20 06:30:06;;;;;;;;;23.00;22.00;;;;;;;;5067806;29;8811;-75
2023/03/20 06:32:39;;;;;;;;;20.20;19.00;;;;;;;;5066178;29;12234;-75
2023/03/20 06:35:13;;;;;;;;;20.20;19.80;;;;;;;;5052729;29;8803;-76
2023/03/20 06:37:48;;;;;;;;;17.40;17.40;;;;;;;;5052471;29;9538;-76
2023/03/20 06:40:28;;;;;;;;;21.40;21.40;;;;;;;;5053012;29;8800;-76
2023/03/20 06:43:00;;;;;;;;;21.40;21.00;;;;;;;;5036727;29;8962;-76
2023/03/20 06:45:41;;;;;;;;;15.00;15.00;;;;;;;;5055796;29;8799;-76
2023/03/20 06:48:21;;;;;;;;;25.00;24.80;;;;;;;;5057055;29;9665;-76
2023/03/20 06:50:55;;;;;;;;;30.60;29.80;;;;;;;;5071610;29;8812;-76
2023/03/20 06:53:30;;;;;;;;;29.20;25.00;;;;;;;;5041096;29;8835;-76
2023/03/20 06:56:13;;;;;;;;;26.20;25.00;;;;;;;;5073330;29;8795;-76
2023/03/20 06:58:45;;;;;;;;;25.80;25.00;;;;;;;;5055748;29;8903;-76
2023/03/20 07:01:19;;;;;;;;;15.80;15.60;;;;;;;;5055861;29;8802;-76
2023/03/20 07:03:50;;;;;;;;;30.80;30.00;;;;;;;;5088189;29;8894;-75
2023/03/20 07:06:26;;;;;;;;;30.20;29.40;;;;;;;;5041209;29;8799;-76
2023/03/20 07:08:57;;;;;;;;;40.20;37.60;;;;;;;;5072922;29;8822;-76
2023/03/20 07:11:29;;;;;;;;;37.00;34.50;;;;;;;;5067396;29;8934;-75
2023/03/20 07:14:00;;;;;;;;;34.60;33.60;;;;;;;;5070999;29;10557;-75
2023/03/20 07:16:43;;;;;;;;;29.80;29.80;;;;;;;;5055673;29;8783;-76
2023/03/20 07:19:14;;;;;;;;;31.50;30.25;;;;;;;;5071099;29;8780;-77
2023/03/20 07:21:47;;;;;;;;;35.60;33.80;;;;;;;;5070657;29;8799;-77
2023/03/20 07:24:20;;;;;;;;;39.60;35.80;;;;;;;;5038781;29;8827;-76
2023/03/20 07:26:51;;;;;;;;;20.60;20.40;;;;;;;;5070719;29;8796;-77
2023/03/20 07:29:24;;;;;;;;;16.40;16.40;;;;;;;;5039897;29;8807;-77
2023/03/20 07:31:55;;;;;;;;;16.60;16.20;;;;;;;;5038106;29;8808;-76
2023/03/20 07:34:28;;;;;;;;;20.20;19.80;;;;;;;;5037190;29;8836;-76
2023/03/20 07:37:00;;;;;;;;;13.80;13.80;;;;;;;;5051393;29;8782;-76
2023/03/20 07:39:33;;;;;;;;;18.00;17.60;;;;;;;;5035995;29;8790;-77
2023/03/20 07:42:29;;;;;;;;;17.00;16.00;;;;;;;;5066950;29;8778;-76
2023/03/20 07:45:04;;;;;;;;;18.80;18.40;;;;;;;;5035608;29;8794;-77
2023/03/20 07:47:53;;;;;;;;;21.40;20.60;;;;;;;;5052060;29;8806;-78
2023/03/20 07:50:24;;;;;;;;;24.80;24.80;;;;;;;;5052314;29;8818;-77
2023/03/20 07:53:15;;;;;;;;;25.80;25.60;;;;;;;;5072614;29;8806;-84
2023/03/20 07:55:48;;;;;;;;;18.80;18.80;;;;;;;;5041798;29;8842;-84
2023/03/20 07:58:21;;;;;;;;;18.00;18.00;;;;;;;;5049587;23;8879;-77
2023/03/20 08:00:55;;;;;;;;;19.20;18.20;;;;;;;;5043142;29;8810;-79
2023/03/20 08:03:26;;;;;;;;;16.40;16.40;;;;;;;;5041823;29;8802;-83
2023/03/20 08:05:58;;;;;;;;;18.20;17.40;;;;;;;;5036167;29;8890;-83
2023/03/20 08:08:29;;;;;;;;;35.80;32.40;;;;;;;;5043898;29;8830;-83
2023/03/20 08:11:00;;;;;;;;;13.80;13.80;;;;;;;;5045337;29;9562;-83
2023/03/20 08:13:31;;;;;;;;;12.60;12.60;;;;;;;;5045513;29;8989;-82
2023/03/20 08:16:03;;;;;;;;;11.00;11.00;;;;;;;;5030004;29;8778;-83
2023/03/20 08:18:34;;;;;;;;;9.60;9.60;;;;;;;;5028550;29;8790;-83
2023/03/20 08:21:06;;;;;;;;;10.80;10.00;;;;;;;;5023184;29;8804;-83
2023/03/20 08:23:55;;;;;;;;;9.80;9.80;;;;;;;;5040711;29;8804;-83
2023/03/20 08:26:27;;;;;;;;;12.40;12.40;;;;;;;;5039454;29;8816;-83
2023/03/20 08:28:58;;;;;;;;;7.20;7.20;;;;;;;;5039221;29;8816;-82
2023/03/20 08:31:30;;;;;;;;;8.00;7.40;;;;;;;;5025700;29;8792;-85
2023/03/20 08:34:01;;;;;;;;;13.20;12.40;;;;;;;;5024612;29;8844;-84
2023/03/20 08:36:51;;;;;;;;;9.00;9.00;;;;;;;;5041178;29;9540;-85
2023/03/20 08:39:23;;;;;;;;;8.60;8.60;;;;;;;;5026153;29;8807;-83
2023/03/20 08:41:54;;;;;;;;;6.00;6.00;;;;;;;;5027853;29;8808;-83
2023/03/20 08:44:25;;;;;;;;;7.40;7.20;;;;;;;;5027740;29;8804;-84
2023/03/20 08:46:57;;;;;;;;;7.20;7.20;;;;;;;;5042877;29;8925;-83
2023/03/20 08:49:28;;;;;;;;;8.40;8.40;;;;;;;;5024427;29;9666;-84
2023/03/20 08:51:59;;;;;;;;;7.40;7.40;;;;;;;;5042788;29;8788;-84
2023/03/20 08:54:49;;;;;;;;;6.00;6.00;;;;;;;;5043751;29;8875;-84
2023/03/20 08:57:20;;;;;;;;;7.60;7.60;;;;;;;;5025906;29;8796;-77
2023/03/20 08:59:51;;;;;;;;;16.00;14.25;;;;;;;;5045857;29;8824;-77
2023/03/20 09:02:22;;;;;;;;;9.50;9.50;;;;;;;;5046947;29;11630;-77
2023/03/20 09:04:52;;;;;;;;;8.75;8.75;;;;;;;;5046993;29;8804;-76
2023/03/20 09:07:23;;;;;;;;;9.75;9.25;;;;;;;;5029793;29;8787;-76
2023/03/20 09:09:54;;;;;;;;;7.75;7.00;;;;;;;;5015278;29;8826;-76
2023/03/20 09:12:25;;;;;;;;;9.67;9.67;;;;;;;;5014884;29;9360;-78
2023/03/20 09:14:56;;;;;;;;;7.00;7.00;;;;;;;;5030336;29;8791;-76
2023/03/20 09:17:27;;;;;;;;;7.00;7.00;;;;;;;;5030123;29;11397;-78
2023/03/20 09:20:16;;;;;;;;;8.20;8.00;;;;;;;;5032803;29;8808;-78
2023/03/20 09:22:47;;;;;;;;;12.00;12.00;;;;;;;;5014772;29;8891;-78
2023/03/20 09:25:18;;;;;;;;;7.75;7.75;;;;;;;;5046689;29;8819;-78
2023/03/20 09:27:55;;;;;;;;;3.25;3.25;;;;;;;;5060986;29;9464;-78
2023/03/20 09:30:26;;;;;;;;;2.60;2.60;;;;;;;;5014663;29;8927;-78
2023/03/20 09:32:57;;;;;;;;;7.25;7.25;;;;;;;;5030187;29;8858;-78
2023/03/20 09:35:27;;;;;;;;;7.00;7.00;;;;;;;;5029783;29;8839;-77
2023/03/20 09:38:17;;;;;;;;;80.00;60.60;;;;;;;;5030048;29;8800;-76
2023/03/20 09:40:47;;;;;;;;;12.75;12.75;;;;;;;;5029913;29;9589;-77
2023/03/20 09:43:27;;;;;;;;;2.00;2.00;;;;;;;;5029814;29;8796;-77
2023/03/20 09:46:23;;;;;;;;;8.00;8.00;;;;;;;;5030141;29;8800;-76
2023/03/20 09:48:54;;;;;;;;;3.75;3.75;;;;;;;;5046397;29;9531;-76
2023/03/20 09:51:35;;;;;;;;;8.00;8.00;;;;;;;;5029749;29;8832;-77
2023/03/20 09:54:24;;;;;;;;;8.00;8.00;;;;;;;;5014208;29;9583;-75
2023/03/20 09:56:56;;;;;;;;;19.40;18.80;;;;;;;;5046665;29;9591;-76
2023/03/20 09:59:28;;;;;;;;;12.20;12.20;;;;;;;;5046260;29;8939;-76
2023/03/20 10:02:11;;;;;;;;;13.20;13.20;;;;;;;;5046113;29;8815;-75
2023/03/20 10:05:02;;;;;;;;;13.00;13.00;;;;;;;;5032308;29;8804;-75
2023/03/20 10:07:34;;;;;;;;;8.20;8.20;;;;;;;;5014686;29;8804;-75
2023/03/20 10:10:06;;;;;;;;;2.80;2.80;;;;;;;;4999544;29;8804;-76
2023/03/20 10:12:59;;;;;;;;;3.40;3.40;;;;;;;;5044928;29;8868;-75
2023/03/20 10:15:40;;;;;;;;;6.00;6.00;;;;;;;;5029337;29;8784;-76
2023/03/20 10:18:27;;;;;;;;;6.80;6.80;;;;;;;;5014469;29;8867;-76
2023/03/20 10:21:06;;;;;;;;;13.00;12.20;;;;;;;;5029485;29;8835;-76
2023/03/20 10:23:56;;;;;;;;;8.00;8.00;;;;;;;;5014030;29;9642;-76
2023/03/20 10:26:27;;;;;;;;;11.40;11.40;;;;;;;;5046258;29;9515;-77
2023/03/20 10:29:18;;;;;;;;;9.20;9.20;;;;;;;;5031543;29;8895;-76
2023/03/20 10:31:55;;;;;;;;;9.00;8.75;;;;;;;;5029927;29;9548;-77
2023/03/20 10:34:55;;;;;;;;;12.60;12.20;;;;;;;;5050768;29;8883;-77
2023/03/20 10:37:52;;;;;;;;;15.80;14.80;;;;;;;;5047223;29;8792;-77
2023/03/20 10:40:31;;;;;;;;;14.20;14.00;;;;;;;;5012741;29;8820;-76
2023/03/20 10:43:03;;;;;;;;;12.60;11.20;;;;;;;;5023590;29;8838;-76
2023/03/20 10:45:51;;;;;;;;;12.40;12.40;;;;;;;;5023547;29;8842;-76
2023/03/20 10:48:30;;;;;;;;;29.00;27.60;;;;;;;;5007858;29;8856;-76
2023/03/20 10:51:02;;;;;;;;;20.80;20.20;;;;;;;;5024718;29;8818;-76
2023/03/20 10:53:55;;;;;;;;;15.40;15.20;;;;;;;;5008057;29;8853;-76
2023/03/20 10:56:38;;;;;;;;;13.60;11.40;;;;;;;;5014092;29;8858;-77
2023/03/20 10:59:11;;;;;;;;;9.40;9.40;;;;;;;;5051830;29;8994;-77
2023/03/20 11:02:01;;;;;;;;;11.00;11.00;;;;;;;;5028162;29;8834;-78
2023/03/20 11:04:31;;;;;;;;;8.00;8.00;;;;;;;;5029651;29;8842;-78
2023/03/20 11:07:11;;;;;;;;;6.67;5.67;;;;;;;;5028641;29;8815;-78
2023/03/20 11:09:41;;;;;;;;;6.25;6.25;;;;;;;;5012120;29;8834;-78
2023/03/20 11:12:19;;;;;;;;;7.00;7.00;;;;;;;;5028520;29;8815;-78
2023/03/20 11:15:14;;;;;;;;;15.80;15.00;;;;;;;;5045334;29;8823;-77
2023/03/20 11:18:05;;;;;;;;;14.40;13.60;;;;;;;;5045163;29;8823;-77
2023/03/20 11:20:55;;;;;;;;;7.00;7.00;;;;;;;;5026445;29;8813;-78
2023/03/20 11:23:30;;;;;;;;;38.20;36.60;;;;;;;;5009475;29;8847;-77
2023/03/20 11:26:02;;;;;;;;;16.60;16.20;;;;;;;;5009611;29;8818;-80
2023/03/20 11:28:36;;;;;;;;;8.80;8.80;;;;;;;;5025579;29;8866;-78
2023/03/20 11:31:16;;;;;;;;;9.40;9.40;;;;;;;;5022140;29;8839;-77
2023/03/20 11:34:00;;;;;;;;;7.50;7.50;;;;;;;;5032193;29;8926;-77
2023/03/20 11:36:35;;;;;;;;;7.80;7.80;;;;;;;;5031764;29;8843;-77
2023/03/20 11:39:13;;;;;;;;;10.20;10.20;;;;;;;;5032908;29;8977;-77
2023/03/20 11:41:44;;;;;;;;;8.00;8.00;;;;;;;;5032047;29;8830;-77
2023/03/20 11:44:24;;;;;;;;;9.60;9.60;;;;;;;;5016583;29;8865;-78
2023/03/20 11:46:56;;;;;;;;;7.60;7.40;;;;;;;;5016838;29;9449;-78
2023/03/20 11:49:53;;;;;;;;;7.50;7.50;;;;;;;;5048605;29;9601;-78
2023/03/20 11:52:28;;;;;;;;;9.60;9.60;;;;;;;;5016246;29;8826;-78
2023/03/20 11:55:00;;;;;;;;;8.80;8.80;;;;;;;;5047719;29;8866;-77
2023/03/20 11:57:50;;;;;;;;;8.80;8.80;;;;;;;;5060609;29;9599;-78
2023/03/20 12:00:21;;;;;;;;;11.40;11.40;;;;;;;;5032161;29;9627;-78
2023/03/20 12:02:52;;;;;;;;;14.00;12.20;;;;;;;;5048370;29;8919;-78
2023/03/20 12:05:23;;;;;;;;;10.20;9.60;;;;;;;;5031608;29;9493;-78
2023/03/20 12:07:57;;;;;;;;;13.60;13.20;;;;;;;;5046888;29;8807;-78
2023/03/20 12:10:31;;;;;;;;;13.60;13.60;;;;;;;;5048028;29;8804;-78
2023/03/20 12:13:06;;;;;;;;;8.20;8.20;;;;;;;;5048031;29;8836;-78
2023/03/20 12:15:40;;;;;;;;;9.40;9.40;;;;;;;;5015851;29;8828;-78
2023/03/20 12:18:13;;;;;;;;;9.40;9.40;;;;;;;;5046871;29;8812;-77
2023/03/20 12:20:43;;;;;;;;;9.60;9.60;;;;;;;;5062192;29;9547;-77
2023/03/20 12:23:34;;;;;;;;;11.75;11.75;;;;;;;;5047563;29;8816;-77
2023/03/20 12:26:09;;;;;;;;;12.20;10.60;;;;;;;;5047934;29;12265;-77
2023/03/20 12:29:04;;;;;;;;;12.60;12.40;;;;;;;;5062410;29;8950;-77
2023/03/20 12:31:39;;;;;;;;;8.20;8.20;;;;;;;;5040350;29;8820;-77
2023/03/20 12:34:10;;;;;;;;;9.60;9.60;;;;;;;;5030729;29;8847;-77
2023/03/20 12:36:43;;;;;;;;;10.00;10.00;;;;;;;;5030969;29;8855;-77
2023/03/20 12:39:16;;;;;;;;;10.60;10.40;;;;;;;;5030996;29;8818;-77
2023/03/20 12:42:06;;;;;;;;;14.00;14.00;;;;;;;;5030570;29;8780;-77
2023/03/20 12:44:42;;;;;;;;;36.60;35.20;;;;;;;;5046112;29;8784;-77
2023/03/20 12:47:15;;;;;;;;;32.00;30.00;;;;;;;;5014863;29;8808;-77
2023/03/20 12:49:55;;;;;;;;;28.60;26.20;;;;;;;;5030473;29;8859;-78
2023/03/20 12:52:48;;;;;;;;;33.80;33.60;;;;;;;;5015144;29;8792;-78
2023/03/20 12:55:20;;;;;;;;;29.60;28.60;;;;;;;;5030521;29;8812;-78
2023/03/20 12:57:50;;;;;;;;;24.00;24.00;;;;;;;;5045481;29;8832;-78
2023/03/20 13:00:25;;;;;;;;;60.50;49.00;;;;;;;;5030733;29;8796;-78
2023/03/20 13:03:09;;;;;;;;;37.00;35.00;;;;;;;;5015281;29;8803;-78
2023/03/20 13:06:03;;;;;;;;;42.80;37.60;;;;;;;;5030428;29;8991;-78
2023/03/20 13:08:46;;;;;;;;;24.00;24.00;;;;;;;;5040594;29;8835;-78
2023/03/20 13:11:43;;;;;;;;;18.00;18.00;;;;;;;;5029925;29;9562;-78
2023/03/20 13:14:37;;;;;;;;;17.80;17.80;;;;;;;;5030095;29;8855;-78
2023/03/20 13:17:09;;;;;;;;;23.00;21.80;;;;;;;;5030332;29;8800;-78
2023/03/20 13:19:49;;;;;;;;;30.75;30.75;;;;;;;;5030364;29;9351;-79
2023/03/20 13:22:20;;;;;;;;;29.80;28.60;;;;;;;;5030212;29;8796;-78
2023/03/20 13:24:59;;;;;;;;;30.00;27.00;;;;;;;;5014669;29;8834;-78
2023/03/20 13:27:53;;;;;;;;;38.20;36.20;;;;;;;;5030280;29;8796;-78
2023/03/20 13:30:33;;;;;;;;;39.20;37.20;;;;;;;;5030121;29;8820;-78
2023/03/20 13:33:37;;;;;;;;;29.60;28.60;;;;;;;;5030546;29;8904;-78
2023/03/20 13:36:08;;;;;;;;;31.20;28.60;;;;;;;;5046610;29;8780;-78
2023/03/20 13:38:45;;;;;;;;;33.80;33.80;;;;;;;;5029783;29;8804;-78
2023/03/20 13:41:16;;;;;;;;;22.80;22.60;;;;;;;;5029430;29;8804;-78
2023/03/20 13:43:59;;;;;;;;;28.25;27.75;;;;;;;;5029101;29;8812;-77
2023/03/20 13:46:45;;;;;;;;;37.20;35.80;;;;;;;;5060605;29;10230;-78
2023/03/20 13:49:24;;;;;;;;;39.80;37.00;;;;;;;;5013625;29;8926;-78
2023/03/20 13:52:15;;;;;;;;;25.20;25.20;;;;;;;;5058939;29;8795;-77
2023/03/20 13:55:04;;;;;;;;;30.20;30.00;;;;;;;;5013948;29;8842;-77
2023/03/20 13:57:35;;;;;;;;;30.80;29.60;;;;;;;;5029410;29;8808;-77
2023/03/20 14:00:18;;;;;;;;;26.80;26.20;;;;;;;;5044960;29;8811;-77
2023/03/20 14:03:26;;;;;;;;;26.40;24.80;;;;;;;;5031939;29;8874;-77
2023/03/20 14:05:57;;;;;;;;;25.80;25.80;;;;;;;;5028588;29;8819;-77
2023/03/20 14:08:37;;;;;;;;;29.60;27.80;;;;;;;;5029082;29;8910;-77
2023/03/20 14:11:14;;;;;;;;;47.40;41.60;;;;;;;;5046450;29;8776;-78
2023/03/20 14:13:48;;;;;;;;;51.60;44.40;;;;;;;;5029468;29;8808;-76
2023/03/20 14:16:19;;;;;;;;;46.80;40.40;;;;;;;;5045916;29;8792;-76
2023/03/20 14:19:03;;;;;;;;;38.80;37.00;;;;;;;;5044567;29;8821;-76
2023/03/20 14:21:34;;;;;;;;;57.00;46.60;;;;;;;;5044066;29;8816;-76
2023/03/20 14:24:06;;;;;;;;;33.40;31.20;;;;;;;;5060443;29;8862;-76
2023/03/20 14:26:40;;;;;;;;;31.40;31.40;;;;;;;;5029012;29;8808;-76
2023/03/20 14:29:11;;;;;;;;;29.80;26.60;;;;;;;;5045765;29;8792;-77
2023/03/20 14:31:44;;;;;;;;;29.00;28.75;;;;;;;;5014310;29;8934;-76
2023/03/20 14:34:17;;;;;;;;;22.40;21.60;;;;;;;;5045762;29;8893;-76
2023/03/20 14:36:55;;;;;;;;;29.40;28.40;;;;;;;;5051872;29;8816;-76
2023/03/20 14:39:53;;;;;;;;;25.20;24.40;;;;;;;;5028693;29;8839;-75
2023/03/20 14:42:47;;;;;;;;;28.40;28.40;;;;;;;;5018195;29;9579;-75
2023/03/20 14:45:29;;;;;;;;;27.80;26.20;;;;;;;;5045252;29;9543;-74
2023/03/20 14:48:10;;;;;;;;;26.40;22.80;;;;;;;;5045829;29;8864;-73
2023/03/20 14:50:51;;;;;;;;;34.80;34.20;;;;;;;;5029053;29;8808;-75
2023/03/20 14:53:25;;;;;;;;;26.80;26.00;;;;;;;;5047490;29;8827;-76
2023/03/20 14:56:15;;;;;;;;;25.20;25.00;;;;;;;;5064785;29;9517;-75
2023/03/20 14:58:48;;;;;;;;;27.40;26.60;;;;;;;;5048124;29;9588;-76
2023/03/20 15:01:33;;;;;;;;;24.40;23.80;;;;;;;;5048215;29;8901;-77
2023/03/20 15:04:05;;;;;;;;;35.20;33.00;;;;;;;;5033072;29;8805;-77
2023/03/20 15:06:56;;;;;;;;;24.40;24.20;;;;;;;;5050834;29;8790;-77
2023/03/20 15:09:29;;;;;;;;;29.80;29.80;;;;;;;;5051738;29;8794;-76
2023/03/20 15:12:02;;;;;;;;;29.60;25.40;;;;;;;;5051997;29;8925;-75
2023/03/20 15:14:57;;;;;;;;;31.80;28.20;;;;;;;;5038293;29;8830;-77
2023/03/20 15:17:35;;;;;;;;;25.20;24.40;;;;;;;;5068816;29;8793;-77
2023/03/20 15:20:11;;;;;;;;;28.20;25.40;;;;;;;;5040049;29;8839;-77
2023/03/20 15:22:52;;;;;;;;;37.80;37.00;;;;;;;;5021229;29;8848;-76
2023/03/20 15:25:31;;;;;;;;;36.80;33.80;;;;;;;;5014439;29;8814;-75
2023/03/20 15:28:06;;;;;;;;;38.00;36.80;;;;;;;;5015870;29;8870;-75
2023/03/20 15:30:57;;;;;;;;;48.00;41.40;;;;;;;;5001305;29;8842;-75
2023/03/20 15:33:31;;;;;;;;;53.60;47.20;;;;;;;;5027983;29;8839;-75
2023/03/20 15:36:09;;;;;;;;;56.60;44.60;;;;;;;;5046881;29;8811;-74
2023/03/20 15:38:40;;;;;;;;;57.40;49.60;;;;;;;;5046567;29;8891;-74
2023/03/20 15:41:27;;;;;;;;;77.25;60.00;;;;;;;;5047024;29;8808;-74
2023/03/20 15:44:13;;;;;;;;;53.60;42.00;;;;;;;;5024916;29;8841;-77
2023/03/20 15:47:09;;;;;;;;;43.40;40.00;;;;;;;;5048487;29;8937;-82
2023/03/20 15:49:40;;;;;;;;;45.80;38.80;;;;;;;;5032066;29;8803;-84
2023/03/20 15:52:17;;;;;;;;;42.40;38.00;;;;;;;;5031740;29;8827;-83
2023/03/20 15:55:11;;;;;;;;;40.00;38.80;;;;;;;;5028928;29;8842;-80
2023/03/20 15:57:43;;;;;;;;;43.60;38.00;;;;;;;;5012571;29;9558;-80
2023/03/20 16:00:26;;;;;;;;;34.20;33.20;;;;;;;;5017732;29;8830;-79
2023/03/20 16:03:04;;;;;;;;;33.60;31.80;;;;;;;;5043268;29;8814;-77
2023/03/20 16:05:35;;;;;;;;;36.00;33.80;;;;;;;;5059216;29;8802;-83
2023/03/20 16:08:13;;;;;;;;;48.00;39.80;;;;;;;;5035824;29;8802;-82
2023/03/20 16:10:44;;;;;;;;;33.20;27.40;;;;;;;;5026648;29;8824;-84
2023/03/20 16:13:18;;;;;;;;;43.20;35.40;;;;;;;;5030873;29;9228;-83
2023/03/20 16:15:49;;;;;;;;;35.80;34.80;;;;;;;;5030138;29;8800;-85
2023/03/20 16:18:20;;;;;;;;;39.00;34.00;;;;;;;;5031074;29;8816;-86
2023/03/20 16:21:02;;;;;;;;;32.40;29.80;;;;;;;;5030674;29;8816;-85
2023/03/20 16:23:40;;;;;;;;;26.20;25.40;;;;;;;;5046304;29;8804;-84
2023/03/20 16:26:15;;;;;;;;;33.60;32.20;;;;;;;;5031274;29;8800;-83
2023/03/20 16:28:48;;;;;;;;;33.60;31.20;;;;;;;;5033091;29;8828;-84
2023/03/20 16:31:22;;;;;;;;;34.00;30.80;;;;;;;;5019854;29;8815;-85
2023/03/20 16:33:57;;;;;;;;;41.40;34.80;;;;;;;;5015284;29;8812;-84
2023/03/20 16:36:51;;;;;;;;;46.00;39.20;;;;;;;;5017591;29;8843;-84
2023/03/20 16:39:23;;;;;;;;;53.60;44.60;;;;;;;;5030286;29;8912;-85